Time,TemperatureF,DewpointF,PressureIn,WindDirection,WindDirectionDegrees,WindSpeedMPH,WindSpeedGustMPH,Humidity,HourlyPrecipIn,Conditions,Clouds,dailyrainin,SoftwareType,DateUTC
2013-07-11 00:04:00,85.0,43.1,29.73,WSW,246,4.0,7.0,23,0.00,,---,0.00,VWS V14.01,2013-07-11 07:04:00,
2013-07-11 00:09:00,84.8,41.8,29.73,West,276,1.0,7.0,22,0.00,,---,0.00,VWS V14.01,2013-07-11 07:09:00,
2013-07-11 00:14:00,84.7,41.7,29.73,West,273,4.0,7.0,22,0.00,,---,0.00,VWS V14.01,2013-07-11 07:14:00,
2013-07-11 00:19:00,84.7,41.7,29.73,WSW,238,0.0,7.0,22,0.00,,---,0.00,VWS V14.01,2013-07-11 07:19:00,
2013-07-11 00:24:00,84.7,41.7,29.73,SW,225,0.0,7.0,22,0.00,,---,0.00,VWS V14.01,2013-07-11 07:24:00,
2013-07-11 00:29:00,84.9,41.9,29.73,WSW,239,2.0,7.0,22,0.00,,---,0.00,VWS V14.01,2013-07-11 07:29:00,
2013-07-11 00:35:00,85.0,43.1,29.73,West,259,2.0,7.0,23,0.00,,---,0.00,VWS V14.01,2013-07-11 07:35:00,
2013-07-11 00:40:00,85.0,41.9,29.72,WSW,256,0.0,7.0,22,0.00,,---,0.00,VWS V14.01,2013-07-11 07:40:00,
2013-07-11 00:45:00,85.1,42.0,29.72,West,263,6.0,7.0,22,0.00,,---,0.00,VWS V14.01,2013-07-11 07:45:00,
2013-07-11 00:50:00,85.2,42.1,29.72,WSW,249,5.0,8.0,22,0.00,,---,0.00,VWS V14.01,2013-07-11 07:50:00,
2013-07-11 00:55:00,85.3,41.0,29.72,SSW,212,3.0,9.0,21,0.00,,---,0.00,VWS V14.01,2013-07-11 07:55:00,
2013-07-11 01:00:00,85.2,40.9,29.72,WSW,243,6.0,6.0,21,0.00,,---,0.00,VWS V14.01,2013-07-11 08:00:00,
2013-07-11 01:05:00,85.1,40.8,29.72,WSW,249,0.0,6.0,21,0.00,,---,0.00,VWS V14.01,2013-07-11 08:05:00,
2013-07-11 01:10:00,84.9,40.7,29.72,SW,217,0.0,6.0,21,0.00,,---,0.00,VWS V14.01,2013-07-11 08:10:00,
2013-07-11 01:15:00,85.0,40.7,29.72,WSW,238,0.0,6.0,21,0.00,,---,0.00,VWS V14.01,2013-07-11 08:15:00,
2013-07-11 01:20:00,85.0,40.7,29.72,WSW,243,0.0,6.0,21,0.00,,---,0.00,VWS V14.01,2013-07-11 08:20:00,
2013-07-11 01:25:00,84.9,41.9,29.72,SSW,203,0.0,6.0,22,0.00,,---,0.00,VWS V14.01,2013-07-11 08:25:00,
2013-07-11 01:30:00,85.0,41.9,29.72,WSW,240,0.0,6.0,22,0.00,,---,0.00,VWS V14.01,2013-07-11 08:30:00,
2013-07-11 01:35:00,85.0,41.9,29.71,WNW,285,0.0,6.0,22,0.00,,---,0.00,VWS V14.01,2013-07-11 08:35:00,
2013-07-11 01:40:00,85.0,41.9,29.71,West,278,0.0,6.0,22,0.00,,---,0.00,VWS V14.01,2013-07-11 08:40:00,
2013-07-11 01:45:00,84.8,41.8,29.70,West,263,3.0,6.0,22,0.00,,---,0.00,VWS V14.01,2013-07-11 08:45:00,
2013-07-11 01:50:00,84.5,42.7,29.70,West,263,2.0,6.0,23,0.00,,---,0.00,VWS V14.01,2013-07-11 08:50:00,
2013-07-11 01:55:00,84.6,43.9,29.70,WSW,242,5.0,8.0,24,0.00,,---,0.00,VWS V14.01,2013-07-11 08:55:00,
2013-07-11 02:00:00,84.8,44.0,29.69,West,266,0.0,7.0,24,0.00,,---,0.00,VWS V14.01,2013-07-11 09:00:00,
2013-07-11 02:05:00,84.8,42.9,29.69,WSW,246,8.0,13.0,23,0.00,,---,0.00,VWS V14.01,2013-07-11 09:05:00,
2013-07-11 02:10:00,85.0,41.9,29.70,SSW,208,1.0,13.0,22,0.00,,---,0.00,VWS V14.01,2013-07-11 09:10:00,
2013-07-11 02:15:00,85.1,43.2,29.71,SSE,148,2.0,13.0,23,0.00,,---,0.00,VWS V14.01,2013-07-11 09:15:00,
2013-07-11 02:20:00,85.1,43.2,29.71,SSE,148,6.0,13.0,23,0.00,,---,0.00,VWS V14.01,2013-07-11 09:20:00,
2013-07-11 02:25:00,84.2,46.6,29.70,SSE,153,1.0,13.0,27,0.00,,---,0.00,VWS V14.01,2013-07-11 09:25:00,
2013-07-11 02:30:00,83.1,48.5,29.70,South,191,5.0,13.0,30,0.00,,---,0.00,VWS V14.01,2013-07-11 09:30:00,
2013-07-11 02:35:00,82.7,48.1,29.70,WSW,249,0.0,13.0,30,0.00,,---,0.00,VWS V14.01,2013-07-11 09:35:00,
2013-07-11 02:40:00,82.5,48.8,29.70,SSW,207,0.0,13.0,31,0.00,,---,0.00,VWS V14.01,2013-07-11 09:40:00,
2013-07-11 02:45:00,82.3,48.7,29.70,SW,217,10.0,13.0,31,0.00,,---,0.00,VWS V14.01,2013-07-11 09:45:00,
2013-07-11 02:50:00,82.1,50.2,29.70,SW,226,6.0,13.0,33,0.00,,---,0.00,VWS V14.01,2013-07-11 09:50:00,
2013-07-11 02:55:00,81.1,50.1,29.70,West,278,1.0,13.0,34,0.00,,---,0.00,VWS V14.01,2013-07-11 09:55:00,
2013-07-11 03:00:00,80.2,50.8,29.70,SSW,208,8.0,13.0,36,0.00,,---,0.00,VWS V14.01,2013-07-11 10:00:00,
2013-07-11 03:05:00,79.5,53.1,29.70,SSW,207,20.0,20.0,40,0.00,,---,0.00,VWS V14.01,2013-07-11 10:05:00,
2013-07-11 03:10:00,77.2,53.6,29.69,SW,222,7.0,23.0,44,0.00,,---,0.00,VWS V14.01,2013-07-11 10:10:00,
2013-07-11 03:15:00,76.4,54.1,29.70,South,191,11.0,23.0,46,0.00,,---,0.00,VWS V14.01,2013-07-11 10:15:00,
2013-07-11 03:20:00,76.1,53.2,29.70,SSW,195,15.0,23.0,45,0.00,,---,0.00,VWS V14.01,2013-07-11 10:20:00,
2013-07-11 03:25:00,76.6,52.5,29.70,SW,223,21.0,25.0,43,0.00,,---,0.00,VWS V14.01,2013-07-11 10:25:00,
2013-07-11 03:30:00,77.3,51.1,29.70,SW,225,13.0,25.0,40,0.00,,---,0.00,VWS V14.01,2013-07-11 10:30:00,
2013-07-11 03:35:00,77.7,51.5,29.71,SW,236,15.0,25.0,40,0.00,,---,0.00,VWS V14.01,2013-07-11 10:35:00,
2013-07-11 03:40:00,77.3,51.8,29.71,SSW,204,11.0,25.0,41,0.00,,---,0.00,VWS V14.01,2013-07-11 10:40:00,
2013-07-11 03:45:00,76.9,52.7,29.71,South,174,9.0,25.0,43,0.00,,---,0.00,VWS V14.01,2013-07-11 10:45:00,
2013-07-11 03:50:00,76.1,52.6,29.71,SSW,208,5.0,25.0,44,0.00,,---,0.00,VWS V14.01,2013-07-11 10:50:00,
2013-07-11 03:55:00,75.8,52.4,29.70,WSW,243,3.0,25.0,44,0.00,,---,0.00,VWS V14.01,2013-07-11 10:55:00,
2013-07-11 04:00:00,77.3,51.1,29.70,SW,228,3.0,4.0,40,0.00,,---,0.00,VWS V14.01,2013-07-11 11:00:00,
2013-07-11 04:05:00,78.1,50.5,29.69,WNW,284,11.0,13.0,38,0.00,,---,0.00,VWS V14.01,2013-07-11 11:05:00,
2013-07-11 04:10:00,79.1,49.9,29.70,WSW,250,5.0,13.0,36,0.00,,---,0.00,VWS V14.01,2013-07-11 11:10:00,
2013-07-11 04:15:00,80.2,49.3,29.69,West,273,10.0,13.0,34,0.00,,---,0.00,VWS V14.01,2013-07-11 11:15:00,
2013-07-11 04:20:00,80.6,49.7,29.69,WSW,258,6.0,13.0,34,0.00,,---,0.00,VWS V14.01,2013-07-11 11:20:00,
2013-07-11 04:25:00,80.1,50.0,29.69,NNW,328,0.0,13.0,35,0.00,,---,0.00,VWS V14.01,2013-07-11 11:25:00,
2013-07-11 04:30:00,79.7,50.4,29.70,East,87,0.0,13.0,36,0.00,,---,0.00,VWS V14.01,2013-07-11 11:30:00,
2013-07-11 04:35:00,79.2,51.4,29.70,ESE,107,9.0,13.0,38,0.00,,---,0.00,VWS V14.01,2013-07-11 11:35:00,
2013-07-11 04:40:00,78.8,51.1,29.70,ESE,121,0.0,15.0,38,0.00,,---,0.00,VWS V14.01,2013-07-11 11:40:00,
2013-07-11 04:45:00,78.8,52.5,29.69,ENE,69,1.0,15.0,40,0.00,,---,0.00,VWS V14.01,2013-07-11 11:45:00,
2013-07-11 04:50:00,78.5,52.2,29.69,East,82,0.0,15.0,40,0.00,,---,0.00,VWS V14.01,2013-07-11 11:50:00,
2013-07-11 04:55:00,77.6,53.4,29.71,ESE,114,7.0,15.0,43,0.00,,---,0.00,VWS V14.01,2013-07-11 11:55:00,
2013-07-11 05:00:00,77.4,53.2,29.71,SE,131,3.0,7.0,43,0.00,,---,0.00,VWS V14.01,2013-07-11 12:00:00,
2013-07-11 05:05:00,78.2,53.2,29.71,SSE,158,2.0,8.0,42,0.00,,---,0.00,VWS V14.01,2013-07-11 12:05:00,
2013-07-11 05:10:00,78.3,52.7,29.71,SSE,160,7.0,10.0,41,0.00,,---,0.00,VWS V14.01,2013-07-11 12:10:00,
2013-07-11 05:15:00,78.5,52.9,29.71,South,186,0.0,10.0,41,0.00,,---,0.00,VWS V14.01,2013-07-11 12:15:00,
2013-07-11 05:20:00,78.5,52.2,29.71,SSE,150,5.0,10.0,40,0.00,,---,0.00,VWS V14.01,2013-07-11 12:20:00,
2013-07-11 05:25:00,78.1,53.8,29.72,East,84,0.0,10.0,43,0.00,,---,0.00,VWS V14.01,2013-07-11 12:25:00,
2013-07-11 05:30:00,77.3,53.7,29.72,West,274,0.0,10.0,44,0.00,,---,0.00,VWS V14.01,2013-07-11 12:30:00,
2013-07-11 05:35:00,76.8,55.1,29.71,SSW,210,0.0,10.0,47,0.00,,---,0.00,VWS V14.01,2013-07-11 12:35:00,
2013-07-11 05:40:00,76.4,55.8,29.71,ESE,115,2.0,10.0,49,0.00,,---,0.00,VWS V14.01,2013-07-11 12:40:00,
2013-07-11 05:45:00,75.3,56.5,29.72,ESE,117,7.0,10.0,52,0.00,,---,0.00,VWS V14.01,2013-07-11 12:45:00,
2013-07-11 05:50:00,74.8,54.9,29.72,SE,127,8.0,14.0,50,0.00,,---,0.00,VWS V14.01,2013-07-11 12:50:00,
2013-07-11 05:56:00,75.0,54.6,29.72,SSW,211,5.0,14.0,49,0.00,,---,0.00,VWS V14.01,2013-07-11 12:56:00,
2013-07-11 06:01:00,74.8,53.8,29.72,SSW,208,5.0,5.0,48,0.00,,---,0.00,VWS V14.01,2013-07-11 13:01:00,
2013-07-11 06:07:00,76.3,50.2,29.72,West,264,4.0,6.0,40,0.00,,---,0.00,VWS V14.01,2013-07-11 13:07:00,
2013-07-11 06:12:00,77.5,51.3,29.72,WSW,256,4.0,8.0,40,0.00,,---,0.00,VWS V14.01,2013-07-11 13:12:00,
2013-07-11 06:17:00,78.0,51.8,29.72,NW,312,0.0,8.0,40,0.00,,---,0.00,VWS V14.01,2013-07-11 13:17:00,
2013-07-11 06:23:00,77.9,51.7,29.72,NE,35,0.0,8.0,40,0.00,,---,0.00,VWS V14.01,2013-07-11 13:23:00,
2013-07-11 06:28:00,77.6,52.7,29.72,East,91,3.0,8.0,42,0.00,,---,0.00,VWS V14.01,2013-07-11 13:28:00,
2013-07-11 06:34:00,76.7,52.5,29.72,East,92,1.0,8.0,43,0.00,,---,0.00,VWS V14.01,2013-07-11 13:34:00,
2013-07-11 06:41:00,76.7,50.6,29.72,East,101,0.0,8.0,40,0.00,,---,0.00,VWS V14.01,2013-07-11 13:41:00,
2013-07-11 06:46:00,76.9,54.0,29.72,SSW,200,0.0,8.0,45,0.00,,---,0.00,VWS V14.01,2013-07-11 13:46:00,
2013-07-11 06:52:00,75.9,54.2,29.73,SSE,148,1.0,8.0,47,0.00,,---,0.00,VWS V14.01,2013-07-11 13:52:00,
2013-07-11 06:59:00,75.2,55.8,29.73,ENE,71,2.0,8.0,51,0.00,,---,0.00,VWS V14.01,2013-07-11 13:59:00,
2013-07-11 07:05:00,74.7,54.8,29.74,SSE,150,6.0,6.0,50,0.00,,---,0.00,VWS V14.01,2013-07-11 14:05:00,
2013-07-11 07:10:00,75.1,52.3,29.74,SSE,158,0.0,6.0,45,0.00,,---,0.00,VWS V14.01,2013-07-11 14:10:00,
2013-07-11 07:15:00,75.6,52.8,29.74,WSW,253,0.0,6.0,45,0.00,,---,0.00,VWS V14.01,2013-07-11 14:15:00,
2013-07-11 07:20:00,75.6,52.8,29.74,ESE,103,0.0,6.0,45,0.00,,---,0.00,VWS V14.01,2013-07-11 14:20:00,
2013-07-11 07:25:00,75.6,54.5,29.75,ESE,107,0.0,6.0,48,0.00,,---,0.00,VWS V14.01,2013-07-11 14:25:00,
2013-07-11 07:30:00,75.8,53.6,29.75,SSE,148,0.0,6.0,46,0.00,,---,0.00,VWS V14.01,2013-07-11 14:30:00,
2013-07-11 07:36:00,76.0,53.2,29.75,SW,221,1.0,6.0,45,0.00,,---,0.00,VWS V14.01,2013-07-11 14:36:00,
2013-07-11 07:41:00,76.2,51.5,29.75,SSW,200,1.0,6.0,42,0.00,,---,0.00,VWS V14.01,2013-07-11 14:41:00,
2013-07-11 07:46:00,76.2,51.5,29.75,SW,231,3.0,7.0,42,0.00,,---,0.00,VWS V14.01,2013-07-11 14:46:00,
2013-07-11 07:51:00,76.2,51.5,29.75,SSW,207,4.0,7.0,42,0.00,,---,0.00,VWS V14.01,2013-07-11 14:51:00,
2013-07-11 07:56:00,76.1,52.0,29.76,SSW,196,1.0,7.0,43,0.00,,---,0.00,VWS V14.01,2013-07-11 14:56:00,
2013-07-11 08:01:00,76.3,51.5,29.75,SSW,203,0.0,5.0,42,0.00,,---,0.00,VWS V14.01,2013-07-11 15:01:00,
2013-07-11 08:06:00,76.4,51.6,29.76,WSW,239,3.0,5.0,42,0.00,,---,0.00,VWS V14.01,2013-07-11 15:06:00,
2013-07-11 08:11:00,76.4,51.6,29.76,SW,217,7.0,8.0,42,0.00,,---,0.00,VWS V14.01,2013-07-11 15:11:00,
2013-07-11 08:16:00,76.1,52.0,29.76,SSW,210,5.0,9.0,43,0.00,,---,0.00,VWS V14.01,2013-07-11 15:16:00,
2013-07-11 08:21:00,75.7,51.6,29.76,SW,224,5.0,15.0,43,0.00,,---,0.00,VWS V14.01,2013-07-11 15:21:00,
2013-07-11 08:26:00,75.7,51.6,29.76,SSW,207,8.0,15.0,43,0.00,,---,0.00,VWS V14.01,2013-07-11 15:26:00,
2013-07-11 08:32:00,75.7,51.6,29.76,SSW,193,8.0,15.0,43,0.00,,---,0.00,VWS V14.01,2013-07-11 15:32:00,
2013-07-11 08:37:00,76.0,51.3,29.76,SSW,196,7.0,15.0,42,0.00,,---,0.00,VWS V14.01,2013-07-11 15:37:00,
2013-07-11 08:43:00,76.6,51.2,29.76,SW,228,4.0,15.0,41,0.00,,---,0.00,VWS V14.01,2013-07-11 15:43:00,
2013-07-11 08:48:00,77.0,50.9,29.76,SSW,202,6.0,15.0,40,0.00,,---,0.00,VWS V14.01,2013-07-11 15:48:00,
2013-07-11 08:53:00,77.7,50.8,29.76,SW,226,12.0,15.0,39,0.00,,---,0.00,VWS V14.01,2013-07-11 15:53:00,
2013-07-11 08:59:00,78.2,50.5,29.76,SSW,212,9.0,15.0,38,0.00,,---,0.00,VWS V14.01,2013-07-11 15:59:00,
2013-07-11 09:04:00,78.6,50.9,29.76,SW,217,3.0,15.0,38,0.00,,---,0.00,VWS V14.01,2013-07-11 16:04:00,
2013-07-11 09:09:00,78.8,51.1,29.76,WSW,239,6.0,15.0,38,0.00,,---,0.00,VWS V14.01,2013-07-11 16:09:00,
2013-07-11 09:14:00,79.2,50.7,29.76,SSW,210,2.0,15.0,37,0.00,,---,0.00,VWS V14.01,2013-07-11 16:14:00,
2013-07-11 09:22:00,79.8,50.5,29.75,SW,217,2.0,15.0,36,0.00,,---,0.00,VWS V14.01,2013-07-11 16:22:00,
2013-07-11 09:28:00,80.0,51.4,29.76,South,191,3.0,15.0,37,0.00,,---,0.00,VWS V14.01,2013-07-11 16:28:00,
2013-07-11 09:33:00,79.7,51.9,29.76,SSW,197,1.0,15.0,38,0.00,,---,0.00,VWS V14.01,2013-07-11 16:33:00,
2013-07-11 09:38:00,78.8,52.5,29.76,SW,230,10.0,15.0,40,0.00,,---,0.00,VWS V14.01,2013-07-11 16:38:00,
2013-07-11 09:43:00,78.1,51.8,29.76,SSW,207,7.0,15.0,40,0.00,,---,0.00,VWS V14.01,2013-07-11 16:43:00,
2013-07-11 09:48:00,77.9,51.0,29.76,WSW,249,2.0,16.0,39,0.00,,---,0.00,VWS V14.01,2013-07-11 16:48:00,
2013-07-11 09:53:00,78.1,51.2,29.76,SSE,153,2.0,16.0,39,0.00,,---,0.00,VWS V14.01,2013-07-11 16:53:00,
2013-07-11 09:59:00,78.2,51.2,29.77,SSW,200,4.0,16.0,39,0.00,,---,0.00,VWS V14.01,2013-07-11 16:59:00,
2013-07-11 10:04:00,78.3,50.6,29.77,South,187,6.0,14.0,38,0.00,,---,0.00,VWS V14.01,2013-07-11 17:04:00,
2013-07-11 10:09:00,78.6,50.9,29.77,SW,219,14.0,17.0,38,0.00,,---,0.00,VWS V14.01,2013-07-11 17:09:00,
2013-07-11 10:14:00,78.9,50.4,29.77,South,177,6.0,17.0,37,0.00,,---,0.00,VWS V14.01,2013-07-11 17:14:00,
2013-07-11 10:20:00,79.3,50.8,29.77,SSW,205,0.0,17.0,37,0.00,,---,0.00,VWS V14.01,2013-07-11 17:20:00,
2013-07-11 10:25:00,79.3,52.9,29.77,South,176,6.0,17.0,40,0.00,,---,0.00,VWS V14.01,2013-07-11 17:25:00,
2013-07-11 10:30:00,78.7,52.4,29.77,SSW,197,8.0,17.0,40,0.00,,---,0.00,VWS V14.01,2013-07-11 17:30:00,
2013-07-11 10:36:00,78.6,51.6,29.77,SW,222,10.0,17.0,39,0.00,,---,0.00,VWS V14.01,2013-07-11 17:36:00,
2013-07-11 10:41:00,78.9,51.2,29.77,SW,217,15.0,17.0,38,0.00,,---,0.00,VWS V14.01,2013-07-11 17:41:00,
2013-07-11 10:46:00,79.2,51.4,29.77,SSE,152,1.0,17.0,38,0.00,,---,0.00,VWS V14.01,2013-07-11 17:46:00,
2013-07-11 10:51:00,79.4,51.6,29.77,SW,228,1.0,17.0,38,0.00,,---,0.00,VWS V14.01,2013-07-11 17:51:00,
2013-07-11 10:57:00,79.7,50.4,29.77,South,184,1.0,17.0,36,0.00,,---,0.00,VWS V14.01,2013-07-11 17:57:00,
2013-07-11 11:03:00,79.9,49.8,29.78,WSW,257,7.0,7.0,35,0.00,,---,0.00,VWS V14.01,2013-07-11 18:03:00,
2013-07-11 11:08:00,80.2,49.3,29.78,South,191,0.0,7.0,34,0.00,,---,0.00,VWS V14.01,2013-07-11 18:08:00,
2013-07-11 11:13:00,80.4,48.7,29.78,SSW,210,6.0,7.0,33,0.00,,---,0.00,VWS V14.01,2013-07-11 18:13:00,
2013-07-11 11:18:00,80.5,48.8,29.78,SSW,204,6.0,7.0,33,0.00,,---,0.00,VWS V14.01,2013-07-11 18:18:00,
2013-07-11 11:23:00,80.7,48.1,29.78,SSW,210,0.0,8.0,32,0.00,,---,0.00,VWS V14.01,2013-07-11 18:23:00,
2013-07-11 11:28:00,80.9,49.1,29.78,SSW,208,7.0,8.0,33,0.00,,---,0.00,VWS V14.01,2013-07-11 18:28:00,
2013-07-11 11:33:00,81.0,49.2,29.78,SW,232,6.0,11.0,33,0.00,,---,0.00,VWS V14.01,2013-07-11 18:33:00,
2013-07-11 11:38:00,81.1,50.9,29.79,SSW,212,0.0,11.0,35,0.00,,---,0.00,VWS V14.01,2013-07-11 18:38:00,
2013-07-11 11:44:00,81.2,51.0,29.79,SSE,163,2.0,11.0,35,0.00,,---,0.00,VWS V14.01,2013-07-11 18:44:00,
2013-07-11 11:49:00,81.4,52.7,29.79,South,169,0.0,11.0,37,0.00,,---,0.00,VWS V14.01,2013-07-11 18:49:00,
2013-07-11 11:54:00,81.4,51.9,29.79,SE,139,4.0,11.0,36,0.00,,---,0.00,VWS V14.01,2013-07-11 18:54:00,
2013-07-11 11:59:00,81.4,51.9,29.79,SSE,155,7.0,7.0,36,0.00,,---,0.00,VWS V14.01,2013-07-11 18:59:00,
2013-07-11 12:05:00,81.9,52.3,29.79,ESE,114,1.0,7.0,36,0.00,,---,0.00,VWS V14.01,2013-07-11 19:05:00,
2013-07-11 12:10:00,82.8,52.4,29.78,SSW,193,1.0,7.0,35,0.00,,---,0.00,VWS V14.01,2013-07-11 19:10:00,
2013-07-11 12:15:00,83.3,53.6,29.79,South,188,0.0,7.0,36,0.00,,---,0.00,VWS V14.01,2013-07-11 19:15:00,
2013-07-11 12:21:00,83.7,53.2,29.79,South,184,0.0,7.0,35,0.00,,---,0.00,VWS V14.01,2013-07-11 19:21:00,
2013-07-11 12:27:00,83.8,53.3,29.79,South,179,3.0,8.0,35,0.00,,---,0.00,VWS V14.01,2013-07-11 19:27:00,
2013-07-11 12:32:00,83.7,53.2,29.79,SSW,194,1.0,9.0,35,0.00,,---,0.00,VWS V14.01,2013-07-11 19:32:00,
2013-07-11 12:37:00,84.0,53.4,29.79,SSW,198,0.0,9.0,35,0.00,,---,0.00,VWS V14.01,2013-07-11 19:37:00,
2013-07-11 12:43:00,84.3,52.1,29.78,SW,226,2.0,9.0,33,0.00,,---,0.00,VWS V14.01,2013-07-11 19:43:00,
2013-07-11 12:49:00,84.9,50.9,29.78,SE,141,0.0,9.0,31,0.00,,---,0.00,VWS V14.01,2013-07-11 19:49:00,
2013-07-11 12:54:00,85.0,52.7,29.78,WSW,245,1.0,9.0,33,0.00,,---,0.00,VWS V14.01,2013-07-11 19:54:00,
2013-07-11 12:59:00,85.0,51.0,29.78,SSE,163,3.0,3.0,31,0.00,,---,0.00,VWS V14.01,2013-07-11 19:59:00,
2013-07-11 13:05:00,85.4,50.5,29.78,ENE,65,0.0,3.0,30,0.00,,---,0.00,VWS V14.01,2013-07-11 20:05:00,
2013-07-11 13:10:00,85.7,52.5,29.78,SW,228,6.0,11.0,32,0.00,,---,0.00,VWS V14.01,2013-07-11 20:10:00,
2013-07-11 13:15:00,85.9,51.8,29.78,WSW,243,1.0,11.0,31,0.00,,---,0.00,VWS V14.01,2013-07-11 20:15:00,
2013-07-11 13:20:00,85.9,53.5,29.78,WSW,252,4.0,11.0,33,0.00,,---,0.00,VWS V14.01,2013-07-11 20:20:00,
2013-07-11 13:25:00,86.1,52.8,29.78,WSW,258,7.0,11.0,32,0.00,,---,0.00,VWS V14.01,2013-07-11 20:25:00,
2013-07-11 13:30:00,86.1,51.1,29.78,WSW,242,8.0,11.0,30,0.00,,---,0.00,VWS V14.01,2013-07-11 20:30:00,
2013-07-11 13:35:00,86.2,53.8,29.77,SW,224,0.0,11.0,33,0.00,,---,0.00,VWS V14.01,2013-07-11 20:35:00,
2013-07-11 13:40:00,86.4,53.1,29.77,WSW,255,6.0,11.0,32,0.00,,---,0.00,VWS V14.01,2013-07-11 20:40:00,
2013-07-11 13:46:00,87.0,52.7,29.77,SW,233,11.0,14.0,31,0.00,,---,0.00,VWS V14.01,2013-07-11 20:46:00,
2013-07-11 13:51:00,86.9,54.4,29.77,South,190,9.0,14.0,33,0.00,,---,0.00,VWS V14.01,2013-07-11 20:51:00,
2013-07-11 13:57:00,87.3,53.9,29.76,SW,224,5.0,14.0,32,0.00,,---,0.00,VWS V14.01,2013-07-11 20:57:00,
2013-07-11 14:02:00,87.7,53.3,29.77,WSW,252,3.0,7.0,31,0.00,,---,0.00,VWS V14.01,2013-07-11 21:02:00,
2013-07-11 14:10:00,87.2,52.9,29.76,SW,220,8.0,13.0,31,0.00,,---,0.00,VWS V14.01,2013-07-11 21:10:00,
2013-07-11 14:15:00,87.0,52.7,29.76,West,259,8.0,13.0,31,0.00,,---,0.00,VWS V14.01,2013-07-11 21:15:00,
2013-07-11 14:21:00,86.5,51.4,29.76,WSW,238,1.0,13.0,30,0.00,,---,0.00,VWS V14.01,2013-07-11 21:21:00,
2013-07-11 14:26:00,86.7,52.5,29.75,WSW,252,11.0,14.0,31,0.00,,---,0.00,VWS V14.01,2013-07-11 21:26:00,
2013-07-11 14:32:00,86.8,53.4,29.75,WSW,256,3.0,14.0,32,0.00,,---,0.00,VWS V14.01,2013-07-11 21:32:00,
2013-07-11 14:37:00,86.9,53.5,29.75,SSW,211,7.0,14.0,32,0.00,,---,0.00,VWS V14.01,2013-07-11 21:37:00,
2013-07-11 14:42:00,86.8,53.4,29.75,WSW,240,7.0,14.0,32,0.00,,---,0.00,VWS V14.01,2013-07-11 21:42:00,
2013-07-11 14:47:00,86.7,52.5,29.75,South,184,8.0,14.0,31,0.00,,---,0.00,VWS V14.01,2013-07-11 21:47:00,
2013-07-11 14:54:00,86.5,52.3,29.75,WSW,246,4.0,14.0,31,0.00,,---,0.00,VWS V14.01,2013-07-11 21:54:00,
2013-07-11 14:59:00,86.3,52.1,29.75,SW,231,10.0,14.0,31,0.00,,---,0.00,VWS V14.01,2013-07-11 21:59:00,
2013-07-11 15:04:00,86.1,52.0,29.74,SW,214,0.0,10.0,31,0.00,,---,0.00,VWS V14.01,2013-07-11 22:04:00,
2013-07-11 15:09:00,86.1,52.0,29.74,SW,215,9.0,10.0,31,0.00,,---,0.00,VWS V14.01,2013-07-11 22:09:00,
2013-07-11 15:14:00,86.0,51.0,29.74,South,172,3.0,10.0,30,0.00,,---,0.00,VWS V14.01,2013-07-11 22:14:00,
2013-07-11 15:19:00,85.8,50.8,29.74,SW,220,5.0,13.0,30,0.00,,---,0.00,VWS V14.01,2013-07-11 22:19:00,
2013-07-11 15:25:00,85.2,51.2,29.74,West,261,4.0,13.0,31,0.00,,---,0.00,VWS V14.01,2013-07-11 22:25:00,
2013-07-11 15:30:00,84.8,51.7,29.74,WSW,243,13.0,17.0,32,0.00,,---,0.00,VWS V14.01,2013-07-11 22:30:00,
2013-07-11 15:36:00,84.3,51.3,29.74,SSW,211,7.0,17.0,32,0.00,,---,0.00,VWS V14.01,2013-07-11 22:36:00,
2013-07-11 15:41:00,83.7,51.6,29.74,SSW,212,12.0,17.0,33,0.00,,---,0.00,VWS V14.01,2013-07-11 22:41:00,
2013-07-11 15:47:00,83.4,51.3,29.73,South,191,8.0,17.0,33,0.00,,---,0.00,VWS V14.01,2013-07-11 22:47:00,
2013-07-11 15:53:00,83.1,50.2,29.74,SW,221,11.0,19.0,32,0.00,,---,0.00,VWS V14.01,2013-07-11 22:53:00,
2013-07-11 15:58:00,82.7,51.5,29.74,SW,228,16.0,19.0,34,0.00,,---,0.00,VWS V14.01,2013-07-11 22:58:00,
2013-07-11 16:04:00,82.5,52.1,29.73,SSW,210,9.0,18.0,35,0.00,,---,0.00,VWS V14.01,2013-07-11 23:04:00,
2013-07-11 16:10:00,82.3,52.7,29.73,SSW,208,8.0,18.0,36,0.00,,---,0.00,VWS V14.01,2013-07-11 23:10:00,
2013-07-11 16:18:00,82.2,53.4,29.73,WSW,239,5.0,18.0,37,0.00,,---,0.00,VWS V14.01,2013-07-11 23:18:00,
2013-07-11 16:23:00,82.2,53.4,29.73,South,187,8.0,18.0,37,0.00,,---,0.00,VWS V14.01,2013-07-11 23:23:00,
2013-07-11 16:29:00,82.3,52.7,29.73,SSW,203,6.0,18.0,36,0.00,,---,0.00,VWS V14.01,2013-07-11 23:29:00,
2013-07-11 16:36:00,82.7,52.3,29.73,SW,219,8.0,18.0,35,0.00,,---,0.00,VWS V14.01,2013-07-11 23:36:00,
2013-07-11 16:41:00,82.7,52.3,29.73,SSE,155,11.0,18.0,35,0.00,,---,0.00,VWS V14.01,2013-07-11 23:41:00,
2013-07-11 16:46:00,82.3,51.9,29.73,WSW,247,13.0,18.0,35,0.00,,---,0.00,VWS V14.01,2013-07-11 23:46:00,
2013-07-11 16:51:00,82.1,51.8,29.73,SSW,210,8.0,20.0,35,0.00,,---,0.00,VWS V14.01,2013-07-11 23:51:00,
2013-07-11 16:56:00,82.3,50.3,29.73,WSW,239,7.0,20.0,33,0.00,,---,0.00,VWS V14.01,2013-07-11 23:56:00,
2013-07-11 17:02:00,82.2,51.1,29.73,WSW,243,5.0,15.0,34,0.00,,---,0.00,VWS V14.01,2013-07-12 00:02:00,
2013-07-11 17:07:00,82.3,51.2,29.72,West,262,8.0,17.0,34,0.00,,---,0.00,VWS V14.01,2013-07-12 00:07:00,
2013-07-11 17:12:00,82.5,50.5,29.73,SSW,203,11.0,18.0,33,0.00,,---,0.00,VWS V14.01,2013-07-12 00:12:00,
2013-07-11 17:17:00,83.0,50.1,29.72,South,187,10.0,18.0,32,0.00,,---,0.00,VWS V14.01,2013-07-12 00:17:00,
2013-07-11 17:26:00,83.3,49.5,29.72,SW,229,9.0,20.0,31,0.00,,---,0.00,VWS V14.01,2013-07-12 00:26:00,
2013-07-11 17:32:00,83.2,49.5,29.72,SW,219,12.0,20.0,31,0.00,,---,0.00,VWS V14.01,2013-07-12 00:32:00,
2013-07-11 17:37:00,83.1,49.4,29.72,SW,214,10.0,20.0,31,0.00,,---,0.00,VWS V14.01,2013-07-12 00:37:00,
2013-07-11 18:18:00,81.0,51.6,29.71,WSW,243,9.0,11.0,36,0.00,,---,0.00,VWS V14.01,2013-07-12 01:18:00,
2013-07-11 18:23:00,81.0,50.0,29.71,SSW,212,8.0,20.0,34,0.00,,---,0.00,VWS V14.01,2013-07-12 01:23:00,
2013-07-11 18:28:00,81.0,50.8,29.71,SW,225,9.0,23.0,35,0.00,,---,0.00,VWS V14.01,2013-07-12 01:28:00,
2013-07-11 18:33:00,80.9,50.7,29.71,SSW,212,9.0,23.0,35,0.00,,---,0.00,VWS V14.01,2013-07-12 01:33:00,
2013-07-11 18:39:00,80.7,50.5,29.71,South,191,9.0,23.0,35,0.00,,---,0.00,VWS V14.01,2013-07-12 01:39:00,
2013-07-11 18:44:00,80.5,51.1,29.71,SSW,205,9.0,23.0,36,0.00,,---,0.00,VWS V14.01,2013-07-12 01:44:00,
2013-07-11 18:49:00,80.3,51.7,29.71,SW,218,16.0,23.0,37,0.00,,---,0.00,VWS V14.01,2013-07-12 01:49:00,
2013-07-11 18:59:00,80.2,51.6,29.71,SSE,160,5.0,7.0,37,0.00,,---,0.00,VWS V14.01,2013-07-12 01:59:00,
2013-07-11 19:05:00,80.1,51.5,29.71,WSW,253,12.0,19.0,37,0.00,,---,0.00,VWS V14.01,2013-07-12 02:05:00,
2013-07-11 19:10:00,80.1,52.2,29.71,SW,224,24.0,24.0,38,0.00,,---,0.00,VWS V14.01,2013-07-12 02:10:00,
2013-07-11 19:16:00,80.0,52.1,29.71,SSW,204,17.0,26.0,38,0.00,,---,0.00,VWS V14.01,2013-07-12 02:16:00,
2013-07-11 19:21:00,79.9,52.0,29.71,SSW,194,10.0,26.0,38,0.00,,---,0.00,VWS V14.01,2013-07-12 02:21:00,
2013-07-11 19:28:00,79.7,51.9,29.71,SW,228,9.0,26.0,38,0.00,,---,0.00,VWS V14.01,2013-07-12 02:28:00,
2013-07-11 19:34:00,79.9,52.0,29.71,SW,214,15.0,26.0,38,0.00,,---,0.00,VWS V14.01,2013-07-12 02:34:00,
2013-07-11 19:39:00,80.0,52.1,29.71,South,173,12.0,26.0,38,0.00,,---,0.00,VWS V14.01,2013-07-12 02:39:00,
2013-07-11 19:45:00,80.1,52.2,29.71,SW,228,13.0,26.0,38,0.00,,---,0.00,VWS V14.01,2013-07-12 02:45:00,
2013-07-11 19:50:00,79.9,52.0,29.71,WSW,239,19.0,26.0,38,0.00,,---,0.00,VWS V14.01,2013-07-12 02:50:00,
2013-07-11 19:55:00,79.7,51.9,29.71,SSW,194,8.0,26.0,38,0.00,,---,0.00,VWS V14.01,2013-07-12 02:55:00,
2013-07-11 20:00:00,79.5,52.4,29.71,South,191,11.0,20.0,39,0.00,,---,0.00,VWS V14.01,2013-07-12 03:00:00,
2013-07-11 20:05:00,79.3,51.5,29.71,WSW,255,8.0,20.0,38,0.00,,---,0.00,VWS V14.01,2013-07-12 03:05:00,
2013-07-11 20:10:00,79.2,51.4,29.71,South,172,20.0,20.0,38,0.00,,---,0.00,VWS V14.01,2013-07-12 03:10:00,
2013-07-11 20:15:00,78.9,51.9,29.71,SSW,210,12.0,23.0,39,0.00,,---,0.00,VWS V14.01,2013-07-12 03:15:00,
2013-07-11 20:22:00,78.8,51.1,29.72,SSW,212,12.0,23.0,38,0.00,,---,0.00,VWS V14.01,2013-07-12 03:22:00,
2013-07-11 20:27:00,78.6,51.6,29.71,SW,218,11.0,23.0,39,0.00,,---,0.00,VWS V14.01,2013-07-12 03:27:00,
2013-07-11 20:32:00,78.3,52.7,29.72,SSW,198,9.0,23.0,41,0.00,,---,0.00,VWS V14.01,2013-07-12 03:32:00,
2013-07-11 20:37:00,78.0,53.1,29.72,WSW,238,24.0,24.0,42,0.00,,---,0.00,VWS V14.01,2013-07-12 03:37:00,
2013-07-11 20:42:00,77.7,52.8,29.72,SE,143,8.0,26.0,42,0.00,,---,0.00,VWS V14.01,2013-07-12 03:42:00,
2013-07-11 20:47:00,77.6,52.7,29.72,SSW,204,18.0,26.0,42,0.00,,---,0.00,VWS V14.01,2013-07-12 03:47:00,
2013-07-11 20:52:00,77.7,51.5,29.72,SW,219,17.0,27.0,40,0.00,,---,0.00,VWS V14.01,2013-07-12 03:52:00,
2013-07-11 20:57:00,77.9,49.6,29.72,SW,217,11.0,27.0,37,0.00,,---,0.00,VWS V14.01,2013-07-12 03:57:00,
2013-07-11 21:00:00,78.0,50.4,29.72,SW,225,12.0,27.0,38,0.00,,---,0.00,VWS V14.01,2013-07-12 04:00:00,
2013-07-11 21:01:00,78.1,50.5,29.72,SSW,210,15.0,20.0,38,0.00,,---,0.00,VWS V14.01,2013-07-12 04:01:00,
2013-07-11 21:02:00,78.1,50.5,29.72,SSW,197,13.0,22.0,38,0.00,,---,0.00,VWS V14.01,2013-07-12 04:02:00,
2013-07-11 21:03:00,78.1,50.5,29.72,WSW,240,19.0,22.0,38,0.00,,---,0.00,VWS V14.01,2013-07-12 04:03:00,
2013-07-11 21:06:00,78.0,51.8,29.72,SSW,210,13.0,22.0,40,0.00,,---,0.00,VWS V14.01,2013-07-12 04:06:00,
2013-07-11 21:07:00,77.9,51.7,29.73,SW,214,13.0,22.0,40,0.00,,---,0.00,VWS V14.01,2013-07-12 04:07:00,
2013-07-11 21:12:00,77.7,51.5,29.73,SW,222,14.0,22.0,40,0.00,,---,0.00,VWS V14.01,2013-07-12 04:12:00,
2013-07-11 21:17:00,77.7,51.5,29.73,South,184,8.0,24.0,40,0.00,,---,0.00,VWS V14.01,2013-07-12 04:17:00,
2013-07-11 21:22:00,77.5,51.3,29.73,SW,228,13.0,24.0,40,0.00,,---,0.00,VWS V14.01,2013-07-12 04:22:00,
2013-07-11 21:27:00,77.6,50.7,29.73,SW,226,17.0,24.0,39,0.00,,---,0.00,VWS V14.01,2013-07-12 04:27:00,
2013-07-11 21:32:00,77.4,51.9,29.73,SSW,205,7.0,30.0,41,0.00,,---,0.00,VWS V14.01,2013-07-12 04:32:00,
2013-07-11 21:37:00,77.4,50.5,29.74,SW,228,18.0,30.0,39,0.00,,---,0.00,VWS V14.01,2013-07-12 04:37:00,
2013-07-11 21:42:00,77.4,51.2,29.74,SW,229,10.0,30.0,40,0.00,,---,0.00,VWS V14.01,2013-07-12 04:42:00,
2013-07-11 21:47:00,77.2,51.0,29.74,South,184,16.0,30.0,40,0.00,,---,0.00,VWS V14.01,2013-07-12 04:47:00,
2013-07-11 21:52:00,77.1,50.9,29.74,SW,226,6.0,30.0,40,0.00,,---,0.00,VWS V14.01,2013-07-12 04:52:00,
2013-07-11 21:57:00,77.1,50.9,29.74,SSW,196,6.0,30.0,40,0.00,,---,0.00,VWS V14.01,2013-07-12 04:57:00,
2013-07-11 22:02:00,77.1,50.9,29.75,South,178,7.0,18.0,40,0.00,,---,0.00,VWS V14.01,2013-07-12 05:02:00,
2013-07-11 22:07:00,77.0,50.9,29.75,SW,217,10.0,20.0,40,0.00,,---,0.00,VWS V14.01,2013-07-12 05:07:00,
2013-07-11 22:12:00,76.9,51.4,29.75,SSW,200,9.0,20.0,41,0.00,,---,0.00,VWS V14.01,2013-07-12 05:12:00,
2013-07-11 22:17:00,76.9,50.8,29.75,SW,224,11.0,20.0,40,0.00,,---,0.00,VWS V14.01,2013-07-12 05:17:00,
2013-07-11 22:22:00,77.0,50.2,29.75,SSW,198,6.0,20.0,39,0.00,,---,0.00,VWS V14.01,2013-07-12 05:22:00,
2013-07-11 22:28:00,77.1,49.6,29.75,SW,228,8.0,20.0,38,0.00,,---,0.00,VWS V14.01,2013-07-12 05:28:00,
2013-07-11 22:33:00,77.1,49.6,29.75,WSW,240,6.0,20.0,38,0.00,,---,0.00,VWS V14.01,2013-07-12 05:33:00,
2013-07-11 23:06:00,76.6,49.8,29.75,SSW,200,7.0,12.0,39,0.00,,---,0.00,VWS V14.01,2013-07-12 06:06:00,
2013-07-11 23:11:00,76.6,49.8,29.75,South,179,5.0,16.0,39,0.00,,---,0.00,VWS V14.01,2013-07-12 06:11:00,
2013-07-11 23:16:00,76.6,49.8,29.75,South,190,10.0,20.0,39,0.00,,---,0.00,VWS V14.01,2013-07-12 06:16:00,
2013-07-11 23:21:00,76.6,49.8,29.75,SW,214,11.0,20.0,39,0.00,,---,0.00,VWS V14.01,2013-07-12 06:21:00,
2013-07-11 23:26:00,76.4,49.6,29.75,SSE,152,7.0,20.0,39,0.00,,---,0.00,VWS V14.01,2013-07-12 06:26:00,
2013-07-11 23:31:00,76.4,49.6,29.75,SSW,205,12.0,20.0,39,0.00,,---,0.00,VWS V14.01,2013-07-12 06:31:00,
2013-07-11 23:36:00,76.5,49.0,29.75,WSW,240,6.0,20.0,38,0.00,,---,0.00,VWS V14.01,2013-07-12 06:36:00,
2013-07-11 23:41:00,76.6,48.4,29.75,South,181,5.0,20.0,37,0.00,,---,0.00,VWS V14.01,2013-07-12 06:41:00,
2013-07-11 23:46:00,76.6,48.4,29.75,SSW,210,8.0,20.0,37,0.00,,---,0.00,VWS V14.01,2013-07-12 06:46:00,
2013-07-11 23:51:00,76.6,47.7,29.75,SSW,210,7.0,20.0,36,0.00,,---,0.00,VWS V14.01,2013-07-12 06:51:00,
2013-07-11 23:56:00,76.5,47.6,29.75,South,190,9.0,20.0,36,0.00,,---,0.00,VWS V14.01,2013-07-12 06:56:00,